Terminal Aerodrome Forecast
Issued by NWS

Home | Current Version | Previous Version | Text Only | Print | Product List | Glossary On
Versions: 1 2 3 4 5 6 7 8 9 10 11 12 13 14 15 16 17 18
000
FTAK31 PAJN 291100
TAFAYA
TAF
PAYA 291130Z 2912/3012 00000KT P6SM SCT150
     FM292000 07003KT P6SM SCT050 BKN120
     FM300600 08006KT P6SM SCT030 OVC060
      AMD LTD TO CLD VIS AND WIND 3001/3010=

USA.gov is the U.S. government's official web portal to all federal, state and local government web resources and services.